sensor_id;sensor_type;location;lat;lon;timestamp;P1;durP1;ratioP1;P2;durP2;ratioP2
27293;SDS011;14785;52.556;13.430;2023-05-07T00:00:08;10.00;;;6.00;;
27293;SDS011;14785;52.556;13.430;2023-05-07T00:02:34;8.98;;;5.28;;
27293;SDS011;14785;52.556;13.430;2023-05-07T00:05:01;9.50;;;5.40;;
27293;SDS011;14785;52.556;13.430;2023-05-07T00:07:27;9.95;;;5.97;;
27293;SDS011;14785;52.556;13.430;2023-05-07T00:09:53;11.23;;;6.03;;
27293;SDS011;14785;52.556;13.430;2023-05-07T00:12:18;10.53;;;5.43;;
27293;SDS011;14785;52.556;13.430;2023-05-07T00:14:44;12.27;;;5.93;;
27293;SDS011;14785;52.556;13.430;2023-05-07T00:19:35;13.30;;;6.05;;
27293;SDS011;14785;52.556;13.430;2023-05-07T00:22:01;5.90;;;4.50;;
27293;SDS011;14785;52.556;13.430;2023-05-07T00:24:26;5.37;;;3.70;;
27293;SDS011;14785;52.556;13.430;2023-05-07T00:26:52;9.17;;;6.00;;
27293;SDS011;14785;52.556;13.430;2023-05-07T00:29:17;9.07;;;4.73;;
27293;SDS011;14785;52.556;13.430;2023-05-07T00:31:43;12.30;;;4.97;;
27293;SDS011;14785;52.556;13.430;2023-05-07T00:34:08;10.03;;;5.63;;
27293;SDS011;14785;52.556;13.430;2023-05-07T00:36:34;12.33;;;6.57;;
27293;SDS011;14785;52.556;13.430;2023-05-07T00:39:00;10.93;;;4.93;;
27293;SDS011;14785;52.556;13.430;2023-05-07T00:41:27;9.32;;;4.97;;
27293;SDS011;14785;52.556;13.430;2023-05-07T00:43:52;9.67;;;4.63;;
27293;SDS011;14785;52.556;13.430;2023-05-07T00:46:19;7.93;;;4.80;;
27293;SDS011;14785;52.556;13.430;2023-05-07T00:48:45;10.88;;;5.57;;
27293;SDS011;14785;52.556;13.430;2023-05-07T00:51:11;9.23;;;5.37;;
27293;SDS011;14785;52.556;13.430;2023-05-07T00:53:37;8.55;;;4.65;;
27293;SDS011;14785;52.556;13.430;2023-05-07T00:56:03;10.50;;;5.40;;
27293;SDS011;14785;52.556;13.430;2023-05-07T00:58:29;12.10;;;4.30;;
27293;SDS011;14785;52.556;13.430;2023-05-07T01:03:20;5.60;;;4.13;;
27293;SDS011;14785;52.556;13.430;2023-05-07T01:05:46;9.23;;;5.07;;
27293;SDS011;14785;52.556;13.430;2023-05-07T01:08:13;15.13;;;5.43;;
27293;SDS011;14785;52.556;13.430;2023-05-07T01:10:40;9.82;;;5.22;;
27293;SDS011;14785;52.556;13.430;2023-05-07T01:13:08;6.43;;;4.13;;
27293;SDS011;14785;52.556;13.430;2023-05-07T01:15:35;10.35;;;5.53;;
27293;SDS011;14785;52.556;13.430;2023-05-07T01:18:01;9.05;;;5.00;;
27293;SDS011;14785;52.556;13.430;2023-05-07T01:20:27;9.40;;;5.57;;
27293;SDS011;14785;52.556;13.430;2023-05-07T01:22:53;10.40;;;5.38;;
27293;SDS011;14785;52.556;13.430;2023-05-07T01:27:45;9.05;;;4.88;;
27293;SDS011;14785;52.556;13.430;2023-05-07T01:30:11;13.15;;;5.35;;
27293;SDS011;14785;52.556;13.430;2023-05-07T01:35:09;8.18;;;4.93;;
27293;SDS011;14785;52.556;13.430;2023-05-07T01:37:37;7.85;;;4.45;;
27293;SDS011;14785;52.556;13.430;2023-05-07T01:40:05;6.15;;;4.30;;
27293;SDS011;14785;52.556;13.430;2023-05-07T01:42:32;14.80;;;5.82;;
27293;SDS011;14785;52.556;13.430;2023-05-07T01:44:58;9.80;;;4.88;;
27293;SDS011;14785;52.556;13.430;2023-05-07T01:47:23;8.07;;;4.77;;
27293;SDS011;14785;52.556;13.430;2023-05-07T01:49:50;8.55;;;4.35;;
27293;SDS011;14785;52.556;13.430;2023-05-07T01:52:15;6.90;;;4.60;;
27293;SDS011;14785;52.556;13.430;2023-05-07T01:54:41;6.73;;;3.80;;
27293;SDS011;14785;52.556;13.430;2023-05-07T01:57:07;8.68;;;5.10;;
27293;SDS011;14785;52.556;13.430;2023-05-07T01:59:33;13.83;;;3.97;;
27293;SDS011;14785;52.556;13.430;2023-05-07T02:01:58;10.27;;;3.67;;
27293;SDS011;14785;52.556;13.430;2023-05-07T02:04:23;11.20;;;5.73;;
27293;SDS011;14785;52.556;13.430;2023-05-07T02:06:49;7.85;;;4.63;;
27293;SDS011;14785;52.556;13.430;2023-05-07T02:09:15;8.67;;;5.00;;
27293;SDS011;14785;52.556;13.430;2023-05-07T02:11:41;20.23;;;6.23;;
27293;SDS011;14785;52.556;13.430;2023-05-07T02:14:06;7.50;;;4.47;;
27293;SDS011;14785;52.556;13.430;2023-05-07T02:16:31;10.23;;;5.47;;
27293;SDS011;14785;52.556;13.430;2023-05-07T02:18:57;9.03;;;4.77;;
27293;SDS011;14785;52.556;13.430;2023-05-07T02:21:23;8.48;;;5.07;;
27293;SDS011;14785;52.556;13.430;2023-05-07T02:23:50;7.20;;;4.45;;
27293;SDS011;14785;52.556;13.430;2023-05-07T02:26:15;7.30;;;4.03;;
27293;SDS011;14785;52.556;13.430;2023-05-07T02:28:41;11.40;;;5.13;;
27293;SDS011;14785;52.556;13.430;2023-05-07T02:31:06;9.43;;;5.00;;
27293;SDS011;14785;52.556;13.430;2023-05-07T02:33:31;8.30;;;4.73;;
27293;SDS011;14785;52.556;13.430;2023-05-07T02:36:04;10.10;;;5.07;;
27293;SDS011;14785;52.556;13.430;2023-05-07T02:38:33;9.18;;;5.50;;
27293;SDS011;14785;52.556;13.430;2023-05-07T02:40:59;14.05;;;5.03;;
27293;SDS011;14785;52.556;13.430;2023-05-07T02:43:24;8.33;;;4.97;;
27293;SDS011;14785;52.556;13.430;2023-05-07T02:45:59;8.67;;;5.03;;
27293;SDS011;14785;52.556;13.430;2023-05-07T02:48:32;10.00;;;4.68;;
27293;SDS011;14785;52.556;13.430;2023-05-07T02:50:58;15.52;;;7.38;;
27293;SDS011;14785;52.556;13.430;2023-05-07T02:53:24;6.95;;;4.20;;
27293;SDS011;14785;52.556;13.430;2023-05-07T02:55:55;5.72;;;4.07;;
27293;SDS011;14785;52.556;13.430;2023-05-07T02:58:21;9.75;;;5.13;;
27293;SDS011;14785;52.556;13.430;2023-05-07T03:00:47;7.33;;;4.20;;
27293;SDS011;14785;52.556;13.430;2023-05-07T03:03:12;7.30;;;4.00;;
27293;SDS011;14785;52.556;13.430;2023-05-07T03:05:38;8.75;;;4.78;;
27293;SDS011;14785;52.556;13.430;2023-05-07T03:08:04;6.67;;;3.30;;
27293;SDS011;14785;52.556;13.430;2023-05-07T03:10:30;7.10;;;3.93;;
27293;SDS011;14785;52.556;13.430;2023-05-07T03:12:55;7.00;;;4.53;;
27293;SDS011;14785;52.556;13.430;2023-05-07T03:15:21;12.33;;;6.40;;
27293;SDS011;14785;52.556;13.430;2023-05-07T03:17:47;7.93;;;4.43;;
27293;SDS011;14785;52.556;13.430;2023-05-07T03:20:13;10.13;;;5.68;;
27293;SDS011;14785;52.556;13.430;2023-05-07T03:22:38;6.60;;;3.63;;
27293;SDS011;14785;52.556;13.430;2023-05-07T03:25:04;5.15;;;3.35;;
27293;SDS011;14785;52.556;13.430;2023-05-07T03:27:30;9.00;;;4.78;;
27293;SDS011;14785;52.556;13.430;2023-05-07T03:29:56;9.50;;;3.27;;
27293;SDS011;14785;52.556;13.430;2023-05-07T03:32:21;8.80;;;4.67;;
27293;SDS011;14785;52.556;13.430;2023-05-07T03:34:46;7.90;;;4.17;;
27293;SDS011;14785;52.556;13.430;2023-05-07T03:37:12;6.97;;;3.80;;
27293;SDS011;14785;52.556;13.430;2023-05-07T03:39:37;6.93;;;4.50;;
27293;SDS011;14785;52.556;13.430;2023-05-07T03:42:03;8.73;;;4.80;;
27293;SDS011;14785;52.556;13.430;2023-05-07T03:44:28;7.17;;;4.27;;
27293;SDS011;14785;52.556;13.430;2023-05-07T03:46:54;11.10;;;4.53;;
27293;SDS011;14785;52.556;13.430;2023-05-07T03:49:20;7.80;;;4.63;;
27293;SDS011;14785;52.556;13.430;2023-05-07T03:51:46;6.80;;;3.90;;
27293;SDS011;14785;52.556;13.430;2023-05-07T03:54:11;5.57;;;3.33;;
27293;SDS011;14785;52.556;13.430;2023-05-07T03:56:36;5.77;;;3.50;;
27293;SDS011;14785;52.556;13.430;2023-05-07T03:59:02;6.10;;;4.33;;
27293;SDS011;14785;52.556;13.430;2023-05-07T04:01:28;5.47;;;3.50;;
27293;SDS011;14785;52.556;13.430;2023-05-07T04:03:53;6.60;;;4.60;;
27293;SDS011;14785;52.556;13.430;2023-05-07T04:06:19;8.00;;;4.80;;
27293;SDS011;14785;52.556;13.430;2023-05-07T04:08:44;8.20;;;5.27;;
27293;SDS011;14785;52.556;13.430;2023-05-07T04:11:09;5.73;;;3.93;;
27293;SDS011;14785;52.556;13.430;2023-05-07T04:13:35;9.67;;;4.60;;
27293;SDS011;14785;52.556;13.430;2023-05-07T04:16:01;7.87;;;4.30;;
27293;SDS011;14785;52.556;13.430;2023-05-07T04:18:28;14.35;;;4.75;;
27293;SDS011;14785;52.556;13.430;2023-05-07T04:20:53;10.23;;;4.53;;
27293;SDS011;14785;52.556;13.430;2023-05-07T04:23:19;7.00;;;3.03;;
27293;SDS011;14785;52.556;13.430;2023-05-07T04:25:44;5.13;;;3.40;;
27293;SDS011;14785;52.556;13.430;2023-05-07T04:28:10;6.22;;;3.95;;
27293;SDS011;14785;52.556;13.430;2023-05-07T04:30:36;6.75;;;4.43;;
27293;SDS011;14785;52.556;13.430;2023-05-07T04:33:02;8.82;;;3.90;;
27293;SDS011;14785;52.556;13.430;2023-05-07T04:35:27;5.33;;;3.30;;
27293;SDS011;14785;52.556;13.430;2023-05-07T04:37:53;7.17;;;3.23;;
27293;SDS011;14785;52.556;13.430;2023-05-07T04:40:18;8.73;;;4.03;;
27293;SDS011;14785;52.556;13.430;2023-05-07T04:42:44;47.10;;;17.67;;
27293;SDS011;14785;52.556;13.430;2023-05-07T04:45:09;18.93;;;5.53;;
27293;SDS011;14785;52.556;13.430;2023-05-07T04:47:35;9.68;;;5.55;;
27293;SDS011;14785;52.556;13.430;2023-05-07T04:50:01;7.70;;;4.68;;
27293;SDS011;14785;52.556;13.430;2023-05-07T04:52:26;9.47;;;3.77;;
27293;SDS011;14785;52.556;13.430;2023-05-07T04:54:52;8.40;;;3.60;;
27293;SDS011;14785;52.556;13.430;2023-05-07T04:57:17;6.40;;;3.47;;
27293;SDS011;14785;52.556;13.430;2023-05-07T04:59:43;4.57;;;2.60;;
27293;SDS011;14785;52.556;13.430;2023-05-07T05:02:10;4.00;;;3.08;;
27293;SDS011;14785;52.556;13.430;2023-05-07T05:04:35;5.93;;;3.50;;
27293;SDS011;14785;52.556;13.430;2023-05-07T05:07:02;3.30;;;2.92;;
27293;SDS011;14785;52.556;13.430;2023-05-07T05:09:29;7.18;;;3.22;;
27293;SDS011;14785;52.556;13.430;2023-05-07T05:11:54;6.85;;;3.10;;
27293;SDS011;14785;52.556;13.430;2023-05-07T05:14:20;10.43;;;4.17;;
27293;SDS011;14785;52.556;13.430;2023-05-07T05:16:45;4.30;;;2.77;;
27293;SDS011;14785;52.556;13.430;2023-05-07T05:19:10;6.03;;;4.33;;
27293;SDS011;14785;52.556;13.430;2023-05-07T05:21:36;5.03;;;3.00;;
27293;SDS011;14785;52.556;13.430;2023-05-07T05:24:01;5.10;;;3.00;;
27293;SDS011;14785;52.556;13.430;2023-05-07T05:26:27;6.30;;;3.73;;
27293;SDS011;14785;52.556;13.430;2023-05-07T05:28:52;8.70;;;4.27;;
27293;SDS011;14785;52.556;13.430;2023-05-07T05:31:18;7.57;;;3.40;;
27293;SDS011;14785;52.556;13.430;2023-05-07T05:33:43;5.00;;;2.97;;
27293;SDS011;14785;52.556;13.430;2023-05-07T05:36:09;9.50;;;4.97;;
27293;SDS011;14785;52.556;13.430;2023-05-07T05:38:35;7.35;;;4.03;;
27293;SDS011;14785;52.556;13.430;2023-05-07T05:41:00;5.27;;;2.87;;
27293;SDS011;14785;52.556;13.430;2023-05-07T05:43:26;5.93;;;3.30;;
27293;SDS011;14785;52.556;13.430;2023-05-07T05:45:51;9.10;;;3.50;;
27293;SDS011;14785;52.556;13.430;2023-05-07T05:48:16;7.67;;;3.87;;
27293;SDS011;14785;52.556;13.430;2023-05-07T05:50:42;6.33;;;4.03;;
27293;SDS011;14785;52.556;13.430;2023-05-07T05:53:07;9.80;;;5.00;;
27293;SDS011;14785;52.556;13.430;2023-05-07T05:55:33;7.63;;;4.17;;
27293;SDS011;14785;52.556;13.430;2023-05-07T05:57:59;8.45;;;4.07;;
27293;SDS011;14785;52.556;13.430;2023-05-07T06:00:25;24.45;;;9.70;;
27293;SDS011;14785;52.556;13.430;2023-05-07T06:02:51;11.00;;;3.92;;
27293;SDS011;14785;52.556;13.430;2023-05-07T06:05:17;7.43;;;3.90;;
27293;SDS011;14785;52.556;13.430;2023-05-07T06:07:43;7.93;;;3.50;;
27293;SDS011;14785;52.556;13.430;2023-05-07T06:10:08;6.77;;;3.20;;
27293;SDS011;14785;52.556;13.430;2023-05-07T06:12:34;9.07;;;3.87;;
27293;SDS011;14785;52.556;13.430;2023-05-07T06:14:59;4.27;;;2.87;;
27293;SDS011;14785;52.556;13.430;2023-05-07T06:17:25;5.73;;;3.67;;
27293;SDS011;14785;52.556;13.430;2023-05-07T06:19:50;11.10;;;3.90;;
27293;SDS011;14785;52.556;13.430;2023-05-07T06:22:16;7.03;;;3.95;;
27293;SDS011;14785;52.556;13.430;2023-05-07T06:24:42;3.93;;;2.70;;
27293;SDS011;14785;52.556;13.430;2023-05-07T06:27:08;5.13;;;3.17;;
27293;SDS011;14785;52.556;13.430;2023-05-07T06:29:33;7.17;;;3.17;;
27293;SDS011;14785;52.556;13.430;2023-05-07T06:34:37;6.43;;;3.35;;
27293;SDS011;14785;52.556;13.430;2023-05-07T06:39:29;5.28;;;2.83;;
27293;SDS011;14785;52.556;13.430;2023-05-07T06:41:55;5.47;;;2.90;;
27293;SDS011;14785;52.556;13.430;2023-05-07T06:44:21;5.00;;;2.37;;
27293;SDS011;14785;52.556;13.430;2023-05-07T06:46:46;5.90;;;3.47;;
27293;SDS011;14785;52.556;13.430;2023-05-07T06:49:12;11.20;;;5.17;;
27293;SDS011;14785;52.556;13.430;2023-05-07T06:51:38;6.38;;;3.78;;
27293;SDS011;14785;52.556;13.430;2023-05-07T06:54:04;6.57;;;3.33;;
27293;SDS011;14785;52.556;13.430;2023-05-07T06:56:30;5.77;;;3.07;;
27293;SDS011;14785;52.556;13.430;2023-05-07T06:58:56;5.00;;;2.17;;
27293;SDS011;14785;52.556;13.430;2023-05-07T07:01:21;5.50;;;3.17;;
27293;SDS011;14785;52.556;13.430;2023-05-07T07:03:47;5.27;;;2.80;;
27293;SDS011;14785;52.556;13.430;2023-05-07T07:06:13;4.35;;;2.97;;
27293;SDS011;14785;52.556;13.430;2023-05-07T07:08:39;4.00;;;2.77;;
27293;SDS011;14785;52.556;13.430;2023-05-07T07:11:04;4.00;;;2.90;;
27293;SDS011;14785;52.556;13.430;2023-05-07T07:13:30;6.28;;;3.35;;
27293;SDS011;14785;52.556;13.430;2023-05-07T07:15:56;3.47;;;2.33;;
27293;SDS011;14785;52.556;13.430;2023-05-07T07:18:21;3.83;;;2.40;;
27293;SDS011;14785;52.556;13.430;2023-05-07T07:20:47;3.03;;;2.13;;
27293;SDS011;14785;52.556;13.430;2023-05-07T07:23:12;4.43;;;2.60;;
27293;SDS011;14785;52.556;13.430;2023-05-07T07:25:38;2.73;;;2.00;;
27293;SDS011;14785;52.556;13.430;2023-05-07T07:28:05;3.10;;;1.98;;
27293;SDS011;14785;52.556;13.430;2023-05-07T07:30:31;6.28;;;2.42;;
27293;SDS011;14785;52.556;13.430;2023-05-07T07:32:57;5.23;;;2.13;;
27293;SDS011;14785;52.556;13.430;2023-05-07T07:35:28;4.22;;;2.42;;
27293;SDS011;14785;52.556;13.430;2023-05-07T07:37:56;7.45;;;2.28;;
27293;SDS011;14785;52.556;13.430;2023-05-07T07:40:22;2.67;;;2.13;;
27293;SDS011;14785;52.556;13.430;2023-05-07T07:42:48;3.65;;;2.08;;
27293;SDS011;14785;52.556;13.430;2023-05-07T07:45:14;4.27;;;2.33;;
27293;SDS011;14785;52.556;13.430;2023-05-07T07:47:40;3.00;;;1.83;;
27293;SDS011;14785;52.556;13.430;2023-05-07T07:50:05;2.63;;;1.75;;
27293;SDS011;14785;52.556;13.430;2023-05-07T07:54:57;2.97;;;2.25;;
27293;SDS011;14785;52.556;13.430;2023-05-07T07:57:23;4.27;;;2.10;;
27293;SDS011;14785;52.556;13.430;2023-05-07T07:59:49;3.40;;;1.37;;
27293;SDS011;14785;52.556;13.430;2023-05-07T08:02:15;3.05;;;1.80;;
27293;SDS011;14785;52.556;13.430;2023-05-07T08:04:41;3.15;;;2.03;;
27293;SDS011;14785;52.556;13.430;2023-05-07T08:07:08;3.50;;;2.35;;
27293;SDS011;14785;52.556;13.430;2023-05-07T08:12:00;2.58;;;1.90;;
27293;SDS011;14785;52.556;13.430;2023-05-07T08:14:26;2.03;;;1.43;;
27293;SDS011;14785;52.556;13.430;2023-05-07T08:16:53;1.77;;;1.60;;
27293;SDS011;14785;52.556;13.430;2023-05-07T08:19:19;2.72;;;1.52;;
27293;SDS011;14785;52.556;13.430;2023-05-07T08:21:45;2.10;;;1.27;;
27293;SDS011;14785;52.556;13.430;2023-05-07T08:24:12;4.25;;;1.70;;
27293;SDS011;14785;52.556;13.430;2023-05-07T08:26:38;4.45;;;1.70;;
27293;SDS011;14785;52.556;13.430;2023-05-07T08:29:04;3.40;;;1.63;;
27293;SDS011;14785;52.556;13.430;2023-05-07T08:31:30;3.00;;;1.77;;
27293;SDS011;14785;52.556;13.430;2023-05-07T08:33:58;3.17;;;1.77;;
27293;SDS011;14785;52.556;13.430;2023-05-07T08:36:24;1.90;;;1.30;;
27293;SDS011;14785;52.556;13.430;2023-05-07T08:38:53;6.43;;;2.90;;
27293;SDS011;14785;52.556;13.430;2023-05-07T08:41:19;15.40;;;3.25;;
27293;SDS011;14785;52.556;13.430;2023-05-07T08:43:49;1.95;;;1.38;;
27293;SDS011;14785;52.556;13.430;2023-05-07T08:46:19;4.10;;;1.48;;
27293;SDS011;14785;52.556;13.430;2023-05-07T08:48:49;6.53;;;1.90;;
27293;SDS011;14785;52.556;13.430;2023-05-07T08:51:16;3.70;;;1.85;;
27293;SDS011;14785;52.556;13.430;2023-05-07T08:53:46;2.55;;;1.73;;
27293;SDS011;14785;52.556;13.430;2023-05-07T08:56:13;2.38;;;1.73;;
27293;SDS011;14785;52.556;13.430;2023-05-07T08:58:40;5.35;;;1.85;;
27293;SDS011;14785;52.556;13.430;2023-05-07T09:01:07;2.42;;;1.48;;
27293;SDS011;14785;52.556;13.430;2023-05-07T09:03:36;4.18;;;1.90;;
27293;SDS011;14785;52.556;13.430;2023-05-07T09:06:03;2.00;;;1.38;;
27293;SDS011;14785;52.556;13.430;2023-05-07T09:08:28;2.83;;;1.73;;
27293;SDS011;14785;52.556;13.430;2023-05-07T09:10:54;5.00;;;1.67;;
27293;SDS011;14785;52.556;13.430;2023-05-07T09:13:19;2.90;;;1.40;;
27293;SDS011;14785;52.556;13.430;2023-05-07T09:15:50;5.25;;;2.22;;
27293;SDS011;14785;52.556;13.430;2023-05-07T09:18:17;3.53;;;1.50;;
27293;SDS011;14785;52.556;13.430;2023-05-07T09:20:42;1.55;;;1.42;;
27293;SDS011;14785;52.556;13.430;2023-05-07T09:23:08;4.33;;;2.07;;
27293;SDS011;14785;52.556;13.430;2023-05-07T09:25:35;2.53;;;0.90;;
27293;SDS011;14785;52.556;13.430;2023-05-07T09:28:01;3.53;;;2.28;;
27293;SDS011;14785;52.556;13.430;2023-05-07T09:30:29;22.45;;;7.22;;
27293;SDS011;14785;52.556;13.430;2023-05-07T09:32:59;19.67;;;2.15;;
27293;SDS011;14785;52.556;13.430;2023-05-07T09:35:26;2.22;;;1.45;;
27293;SDS011;14785;52.556;13.430;2023-05-07T09:37:55;2.80;;;1.73;;
27293;SDS011;14785;52.556;13.430;2023-05-07T09:40:29;2.53;;;1.08;;
27293;SDS011;14785;52.556;13.430;2023-05-07T09:42:55;3.83;;;1.88;;
27293;SDS011;14785;52.556;13.430;2023-05-07T09:45:22;4.07;;;0.87;;
27293;SDS011;14785;52.556;13.430;2023-05-07T09:47:49;3.45;;;1.48;;
27293;SDS011;14785;52.556;13.430;2023-05-07T09:50:19;2.28;;;1.10;;
27293;SDS011;14785;52.556;13.430;2023-05-07T09:52:51;1.55;;;1.20;;
27293;SDS011;14785;52.556;13.430;2023-05-07T09:55:17;2.95;;;1.30;;
27293;SDS011;14785;52.556;13.430;2023-05-07T10:00:10;6.80;;;1.98;;
27293;SDS011;14785;52.556;13.430;2023-05-07T10:02:36;4.38;;;1.45;;
27293;SDS011;14785;52.556;13.430;2023-05-07T10:05:11;1.85;;;1.00;;
27293;SDS011;14785;52.556;13.430;2023-05-07T10:07:37;2.42;;;1.20;;
27293;SDS011;14785;52.556;13.430;2023-05-07T10:10:04;1.88;;;0.93;;
27293;SDS011;14785;52.556;13.430;2023-05-07T10:12:31;1.92;;;1.08;;
27293;SDS011;14785;52.556;13.430;2023-05-07T10:15:03;2.35;;;1.25;;
27293;SDS011;14785;52.556;13.430;2023-05-07T10:17:33;1.33;;;1.02;;
27293;SDS011;14785;52.556;13.430;2023-05-07T10:20:00;2.83;;;1.25;;
27293;SDS011;14785;52.556;13.430;2023-05-07T10:22:26;1.03;;;0.80;;
27293;SDS011;14785;52.556;13.430;2023-05-07T10:24:53;3.80;;;1.15;;
27293;SDS011;14785;52.556;13.430;2023-05-07T10:27:24;0.88;;;0.63;;
27293;SDS011;14785;52.556;13.430;2023-05-07T10:32:37;1.50;;;0.60;;
27293;SDS011;14785;52.556;13.430;2023-05-07T10:35:22;3.55;;;0.90;;
27293;SDS011;14785;52.556;13.430;2023-05-07T10:37:51;3.78;;;1.63;;
27293;SDS011;14785;52.556;13.430;2023-05-07T10:40:17;1.30;;;1.15;;
27293;SDS011;14785;52.556;13.430;2023-05-07T10:43:01;0.95;;;0.90;;
27293;SDS011;14785;52.556;13.430;2023-05-07T10:45:30;2.58;;;0.73;;
27293;SDS011;14785;52.556;13.430;2023-05-07T10:48:29;5.57;;;1.50;;
27293;SDS011;14785;52.556;13.430;2023-05-07T10:50:48;1.85;;;1.20;;
27293;SDS011;14785;52.556;13.430;2023-05-07T10:55:41;10.50;;;4.38;;
27293;SDS011;14785;52.556;13.430;2023-05-07T11:01:05;1.45;;;1.17;;
27293;SDS011;14785;52.556;13.430;2023-05-07T11:03:30;2.78;;;1.25;;
27293;SDS011;14785;52.556;13.430;2023-05-07T11:06:12;2.33;;;1.50;;
27293;SDS011;14785;52.556;13.430;2023-05-07T11:11:16;3.85;;;1.10;;
27293;SDS011;14785;52.556;13.430;2023-05-07T11:16:18;1.20;;;0.82;;
27293;SDS011;14785;52.556;13.430;2023-05-07T11:18:55;1.83;;;1.27;;
27293;SDS011;14785;52.556;13.430;2023-05-07T11:24:07;2.05;;;1.05;;
27293;SDS011;14785;52.556;13.430;2023-05-07T11:26:47;0.82;;;0.63;;
27293;SDS011;14785;52.556;13.430;2023-05-07T11:29:14;1.98;;;1.05;;
27293;SDS011;14785;52.556;13.430;2023-05-07T11:31:49;1.20;;;0.80;;
27293;SDS011;14785;52.556;13.430;2023-05-07T11:34:20;1.58;;;0.77;;
27293;SDS011;14785;52.556;13.430;2023-05-07T11:36:49;1.35;;;0.80;;
27293;SDS011;14785;52.556;13.430;2023-05-07T11:39:25;4.43;;;0.98;;
27293;SDS011;14785;52.556;13.430;2023-05-07T11:41:52;1.83;;;1.00;;
27293;SDS011;14785;52.556;13.430;2023-05-07T11:44:18;3.30;;;1.07;;
27293;SDS011;14785;52.556;13.430;2023-05-07T11:46:43;1.40;;;0.50;;
27293;SDS011;14785;52.556;13.430;2023-05-07T11:49:10;8.13;;;3.28;;
27293;SDS011;14785;52.556;13.430;2023-05-07T11:51:36;2.28;;;0.98;;
27293;SDS011;14785;52.556;13.430;2023-05-07T11:54:03;1.58;;;1.13;;
27293;SDS011;14785;52.556;13.430;2023-05-07T11:56:28;2.53;;;1.25;;
27293;SDS011;14785;52.556;13.430;2023-05-07T11:58:54;1.50;;;0.77;;
27293;SDS011;14785;52.556;13.430;2023-05-07T12:01:19;1.67;;;0.63;;
27293;SDS011;14785;52.556;13.430;2023-05-07T12:03:45;1.97;;;1.10;;
27293;SDS011;14785;52.556;13.430;2023-05-07T12:06:12;1.35;;;0.70;;
27293;SDS011;14785;52.556;13.430;2023-05-07T12:08:39;0.60;;;0.40;;
27293;SDS011;14785;52.556;13.430;2023-05-07T12:11:09;6.20;;;0.90;;
27293;SDS011;14785;52.556;13.430;2023-05-07T12:13:39;2.03;;;1.00;;
27293;SDS011;14785;52.556;13.430;2023-05-07T12:16:06;0.90;;;0.80;;
27293;SDS011;14785;52.556;13.430;2023-05-07T12:18:32;1.10;;;0.70;;
27293;SDS011;14785;52.556;13.430;2023-05-07T12:21:00;0.90;;;0.68;;
27293;SDS011;14785;52.556;13.430;2023-05-07T12:23:26;2.35;;;0.80;;
27293;SDS011;14785;52.556;13.430;2023-05-07T12:25:51;0.93;;;0.63;;
27293;SDS011;14785;52.556;13.430;2023-05-07T12:28:17;1.33;;;0.50;;
27293;SDS011;14785;52.556;13.430;2023-05-07T12:30:45;2.00;;;0.82;;
27293;SDS011;14785;52.556;13.430;2023-05-07T12:33:12;0.90;;;0.82;;
27293;SDS011;14785;52.556;13.430;2023-05-07T12:35:42;2.55;;;0.75;;
27293;SDS011;14785;52.556;13.430;2023-05-07T12:38:08;3.17;;;0.73;;
27293;SDS011;14785;52.556;13.430;2023-05-07T12:40:56;2.00;;;1.00;;
27293;SDS011;14785;52.556;13.430;2023-05-07T12:43:23;7.30;;;2.50;;
27293;SDS011;14785;52.556;13.430;2023-05-07T12:45:50;0.98;;;0.80;;
27293;SDS011;14785;52.556;13.430;2023-05-07T12:48:16;1.55;;;0.80;;
27293;SDS011;14785;52.556;13.430;2023-05-07T12:50:42;2.50;;;0.88;;
27293;SDS011;14785;52.556;13.430;2023-05-07T12:53:09;1.33;;;0.82;;
27293;SDS011;14785;52.556;13.430;2023-05-07T12:55:43;1.40;;;0.50;;
27293;SDS011;14785;52.556;13.430;2023-05-07T12:58:17;1.40;;;0.60;;
27293;SDS011;14785;52.556;13.430;2023-05-07T13:00:48;1.80;;;0.90;;
27293;SDS011;14785;52.556;13.430;2023-05-07T13:06:04;5.70;;;0.90;;
27293;SDS011;14785;52.556;13.430;2023-05-07T13:08:34;1.77;;;0.68;;
27293;SDS011;14785;52.556;13.430;2023-05-07T13:11:02;0.75;;;0.73;;
27293;SDS011;14785;52.556;13.430;2023-05-07T13:13:32;1.70;;;0.68;;
27293;SDS011;14785;52.556;13.430;2023-05-07T13:15:59;2.10;;;1.00;;
27293;SDS011;14785;52.556;13.430;2023-05-07T13:18:26;0.73;;;0.47;;
27293;SDS011;14785;52.556;13.430;2023-05-07T13:20:52;3.75;;;1.92;;
27293;SDS011;14785;52.556;13.430;2023-05-07T13:25:43;2.80;;;1.30;;
27293;SDS011;14785;52.556;13.430;2023-05-07T13:28:09;4.10;;;1.30;;
27293;SDS011;14785;52.556;13.430;2023-05-07T13:30:37;0.65;;;0.50;;
27293;SDS011;14785;52.556;13.430;2023-05-07T13:33:02;0.87;;;0.87;;
27293;SDS011;14785;52.556;13.430;2023-05-07T13:35:28;15.67;;;5.63;;
27293;SDS011;14785;52.556;13.430;2023-05-07T13:37:53;3.07;;;1.30;;
27293;SDS011;14785;52.556;13.430;2023-05-07T13:40:20;1.17;;;0.63;;
27293;SDS011;14785;52.556;13.430;2023-05-07T13:42:46;1.33;;;0.88;;
27293;SDS011;14785;52.556;13.430;2023-05-07T13:45:11;0.93;;;0.77;;
27293;SDS011;14785;52.556;13.430;2023-05-07T13:47:39;2.20;;;0.70;;
27293;SDS011;14785;52.556;13.430;2023-05-07T13:50:06;1.15;;;0.55;;
27293;SDS011;14785;52.556;13.430;2023-05-07T13:52:32;0.77;;;0.63;;
27293;SDS011;14785;52.556;13.430;2023-05-07T13:54:58;0.47;;;0.40;;
27293;SDS011;14785;52.556;13.430;2023-05-07T13:57:24;2.05;;;0.95;;
27293;SDS011;14785;52.556;13.430;2023-05-07T13:59:49;0.40;;;0.40;;
27293;SDS011;14785;52.556;13.430;2023-05-07T14:02:14;0.97;;;0.73;;
27293;SDS011;14785;52.556;13.430;2023-05-07T14:04:40;1.33;;;1.10;;
27293;SDS011;14785;52.556;13.430;2023-05-07T14:07:05;1.87;;;0.73;;
27293;SDS011;14785;52.556;13.430;2023-05-07T14:09:31;2.40;;;0.90;;
27293;SDS011;14785;52.556;13.430;2023-05-07T14:11:56;1.73;;;0.87;;
27293;SDS011;14785;52.556;13.430;2023-05-07T14:14:21;1.13;;;0.93;;
27293;SDS011;14785;52.556;13.430;2023-05-07T14:16:47;1.07;;;0.60;;
27293;SDS011;14785;52.556;13.430;2023-05-07T14:19:12;0.70;;;0.50;;
27293;SDS011;14785;52.556;13.430;2023-05-07T14:21:38;2.57;;;0.60;;
27293;SDS011;14785;52.556;13.430;2023-05-07T14:24:03;0.63;;;0.50;;
27293;SDS011;14785;52.556;13.430;2023-05-07T14:26:32;0.63;;;0.50;;
27293;SDS011;14785;52.556;13.430;2023-05-07T14:28:58;1.27;;;0.57;;
27293;SDS011;14785;52.556;13.430;2023-05-07T14:31:23;1.23;;;0.70;;
27293;SDS011;14785;52.556;13.430;2023-05-07T14:33:49;1.23;;;0.70;;
27293;SDS011;14785;52.556;13.430;2023-05-07T14:36:16;6.45;;;2.17;;
27293;SDS011;14785;52.556;13.430;2023-05-07T14:38:49;1.35;;;0.70;;
27293;SDS011;14785;52.556;13.430;2023-05-07T14:41:15;0.60;;;0.60;;
27293;SDS011;14785;52.556;13.430;2023-05-07T14:43:42;0.85;;;0.60;;
27293;SDS011;14785;52.556;13.430;2023-05-07T14:46:07;4.82;;;0.70;;
27293;SDS011;14785;52.556;13.430;2023-05-07T14:48:32;0.60;;;0.60;;
27293;SDS011;14785;52.556;13.430;2023-05-07T14:50:58;1.17;;;0.90;;
27293;SDS011;14785;52.556;13.430;2023-05-07T14:55:50;0.85;;;0.57;;
27293;SDS011;14785;52.556;13.430;2023-05-07T14:58:15;3.53;;;0.77;;
27293;SDS011;14785;52.556;13.430;2023-05-07T15:00:41;2.20;;;1.13;;
27293;SDS011;14785;52.556;13.430;2023-05-07T15:03:07;2.30;;;1.13;;
27293;SDS011;14785;52.556;13.430;2023-05-07T15:05:35;2.65;;;1.25;;
27293;SDS011;14785;52.556;13.430;2023-05-07T15:10:26;1.03;;;0.80;;
27293;SDS011;14785;52.556;13.430;2023-05-07T15:12:52;2.30;;;0.98;;
27293;SDS011;14785;52.556;13.430;2023-05-07T15:15:20;1.90;;;1.10;;
27293;SDS011;14785;52.556;13.430;2023-05-07T15:17:46;1.47;;;0.50;;